Time;durP1;ratioP1;P1;durP2;ratioP2;P2;SDS_P1;SDS_P2;PMS_P1;PMS_P2;Temp;Humidity;BMP_temperature;BMP_pressure;BME280_temperature;BME280_humidity;BME280_pressure;Samples;Min_cycle;Max_cycle;Signal;HPM_P1;HPM_P2
2023/04/08 00:00:05;;;;;;;;;;;7.40;99.90;;;;;;4929155;29;19966;-91
2023/04/08 00:02:36;;;;;;;;;;;7.40;99.90;;;;;;4931641;28;20314;-89
2023/04/08 00:05:04;;;;;;;;;;;7.40;99.90;;;;;;4931171;29;19954;-89
2023/04/08 00:07:30;;;;;;;;;;;7.40;99.90;;;;;;4934277;29;19938;-89
2023/04/08 00:09:57;;;;;;;;;;;7.40;99.90;;;;;;4934585;29;20398;-92
2023/04/08 00:12:24;;;;;;;;;;;7.40;99.90;;;;;;4950120;28;19958;-89
2023/04/08 00:14:52;;;;;;;;;;;7.40;99.90;;;;;;4939114;29;20301;-88
2023/04/08 00:17:19;;;;;;;;;;;7.40;99.90;;;;;;4947807;28;19927;-89
2023/04/08 00:19:46;;;;;;;;;;;7.40;99.90;;;;;;4933071;29;19938;-89
2023/04/08 00:22:13;;;;;;;;;;;7.40;99.90;;;;;;4929991;28;19974;-90
2023/04/08 00:24:40;;;;;;;;;;;7.40;99.90;;;;;;4923589;29;20398;-89
2023/04/08 00:27:07;;;;;;;;;;;7.40;99.90;;;;;;4948888;28;19927;-90
2023/04/08 00:29:34;;;;;;;;;;;7.40;99.90;;;;;;4931741;29;20747;-93
2023/04/08 00:32:02;;;;;;;;;;;7.40;99.90;;;;;;4935307;28;19951;-90
2023/04/08 00:34:29;;;;;;;;;;;7.40;99.90;;;;;;4948591;28;19938;-89
2023/04/08 00:36:56;;;;;;;;;;;7.30;99.90;;;;;;4929439;29;20131;-90
2023/04/08 00:39:23;;;;;;;;;;;7.30;99.90;;;;;;4948935;28;19933;-89
2023/04/08 00:41:50;;;;;;;;;;;7.30;99.90;;;;;;4940330;28;19931;-92
2023/04/08 00:44:17;;;;;;;;;;;7.30;99.90;;;;;;4950859;28;20350;-88
2023/04/08 00:46:47;;;;;;;;;;;7.30;99.90;;;;;;4933350;29;21041;-89
2023/04/08 00:49:16;;;;;;;;;;;7.40;99.90;;;;;;4932067;29;19933;-89
2023/04/08 00:51:43;;;;;;;;;;;7.30;99.90;;;;;;4927402;29;19933;-90
2023/04/08 00:54:10;;;;;;;;;;;7.40;99.90;;;;;;4927636;29;19950;-89
2023/04/08 00:56:37;;;;;;;;;;;7.30;99.90;;;;;;4933701;28;19978;-92
2023/04/08 00:59:04;;;;;;;;;;;7.30;99.90;;;;;;4944539;28;19935;-89
2023/04/08 01:01:34;;;;;;;;;;;7.30;99.90;;;;;;4945620;28;19927;-90
2023/04/08 01:04:05;;;;;;;;;;;7.30;99.90;;;;;;4943987;28;20408;-91
2023/04/08 01:06:41;;;;;;;;;;;7.30;99.90;;;;;;4949860;28;19938;-90
2023/04/08 01:09:09;;;;;;;;;;;7.30;99.90;;;;;;4934060;29;20469;-91
2023/04/08 01:11:38;;;;;;;;;;;7.30;99.90;;;;;;4934974;28;20340;-91
2023/04/08 01:14:07;;;;;;;;;;;7.30;99.90;;;;;;4947156;28;19977;-89
2023/04/08 01:16:34;;;;;;;;;;;7.30;99.90;;;;;;4926567;29;19932;-89
2023/04/08 01:19:01;;;;;;;;;;;7.30;99.90;;;;;;4934853;29;20386;-89
2023/04/08 01:21:29;;;;;;;;;;;7.30;99.90;;;;;;4934221;29;20017;-91
2023/04/08 01:24:03;;;;;;;;;;;7.30;99.90;;;;;;4936954;29;19982;-90
2023/04/08 01:26:32;;;;;;;;;;;7.30;99.90;;;;;;4923611;29;19931;-90
2023/04/08 01:29:00;;;;;;;;;;;7.20;99.90;;;;;;4943191;29;19981;-90
2023/04/08 01:31:27;;;;;;;;;;;7.30;99.90;;;;;;4950510;28;20437;-90
2023/04/08 01:33:55;;;;;;;;;;;7.20;99.90;;;;;;4930707;29;20060;-90
2023/04/08 01:36:23;;;;;;;;;;;7.30;99.90;;;;;;4939825;29;20018;-90
2023/04/08 01:38:50;;;;;;;;;;;7.20;99.90;;;;;;4936750;29;19998;-92
2023/04/08 01:41:18;;;;;;;;;;;7.20;99.90;;;;;;4934977;28;19927;-89
2023/04/08 01:43:46;;;;;;;;;;;7.20;99.90;;;;;;4942902;29;19934;-90
2023/04/08 01:46:13;;;;;;;;;;;7.20;99.90;;;;;;4946330;29;19970;-89
2023/04/08 01:48:41;;;;;;;;;;;7.20;99.90;;;;;;4935374;29;19962;-89
2023/04/08 01:51:09;;;;;;;;;;;7.20;99.90;;;;;;4946933;28;20380;-91
2023/04/08 01:53:36;;;;;;;;;;;7.20;99.90;;;;;;4936551;29;20288;-91
2023/04/08 01:56:06;;;;;;;;;;;7.20;99.90;;;;;;4951148;28;19935;-90
2023/04/08 01:58:37;;;;;;;;;;;7.20;99.90;;;;;;4929906;29;19981;-89
2023/04/08 02:01:06;;;;;;;;;;;7.20;99.90;;;;;;4933797;29;20393;-90
2023/04/08 02:03:34;;;;;;;;;;;7.20;99.90;;;;;;4952822;28;19962;-91
2023/04/08 02:06:01;;;;;;;;;;;7.30;99.90;;;;;;4930585;29;19978;-90
2023/04/08 02:08:27;;;;;;;;;;;7.20;99.90;;;;;;4950183;28;19978;-90
2023/04/08 02:10:54;;;;;;;;;;;7.20;99.90;;;;;;4949207;28;19986;-92
2023/04/08 02:13:22;;;;;;;;;;;7.20;99.90;;;;;;4951021;28;19935;-91
2023/04/08 02:15:52;;;;;;;;;;;7.20;99.90;;;;;;4926319;29;19986;-91
2023/04/08 02:18:24;;;;;;;;;;;7.20;99.90;;;;;;4953959;28;19935;-90
2023/04/08 02:20:53;;;;;;;;;;;7.20;99.90;;;;;;4946096;28;20309;-89
2023/04/08 02:23:21;;;;;;;;;;;7.20;99.90;;;;;;4945290;28;20110;-90
2023/04/08 02:25:48;;;;;;;;;;;7.20;99.90;;;;;;4938115;28;19928;-89
2023/04/08 02:28:17;;;;;;;;;;;7.20;99.90;;;;;;4947078;28;19930;-89
2023/04/08 02:30:48;;;;;;;;;;;7.20;99.90;;;;;;4948281;28;19992;-90
2023/04/08 02:33:17;;;;;;;;;;;7.20;99.90;;;;;;4931710;29;20334;-89
2023/04/08 02:35:47;;;;;;;;;;;7.20;99.90;;;;;;4948762;28;19927;-90
2023/04/08 02:38:14;;;;;;;;;;;7.20;99.90;;;;;;4950920;28;19930;-90
2023/04/08 02:40:41;;;;;;;;;;;7.20;99.90;;;;;;4936221;29;20017;-90
2023/04/08 02:43:08;;;;;;;;;;;7.20;99.90;;;;;;4951749;28;19926;-89
2023/04/08 02:45:38;;;;;;;;;;;7.20;99.90;;;;;;4948587;28;20432;-89
2023/04/08 02:48:05;;;;;;;;;;;7.20;99.90;;;;;;4952826;28;20021;-90
2023/04/08 02:50:33;;;;;;;;;;;7.20;99.90;;;;;;4940354;29;19931;-90
2023/04/08 02:53:01;;;;;;;;;;;7.20;99.90;;;;;;4939147;29;19918;-92
2023/04/08 02:55:30;;;;;;;;;;;7.20;99.90;;;;;;4959119;28;19915;-92
2023/04/08 02:57:57;;;;;;;;;;;7.20;99.90;;;;;;4958195;28;19935;-94
2023/04/08 03:00:23;;;;;;;;;;;7.20;99.90;;;;;;4947922;28;20465;-89
2023/04/08 03:02:50;;;;;;;;;;;7.20;99.90;;;;;;4935287;29;19962;-91
2023/04/08 03:05:17;;;;;;;;;;;7.10;99.90;;;;;;4946612;28;19935;-90
2023/04/08 03:07:44;;;;;;;;;;;7.10;99.90;;;;;;4928453;29;19969;-89
2023/04/08 03:10:12;;;;;;;;;;;7.10;99.90;;;;;;4933407;29;19931;-90
2023/04/08 03:12:39;;;;;;;;;;;7.20;99.90;;;;;;4943672;28;20029;-88
2023/04/08 03:15:06;;;;;;;;;;;7.10;99.90;;;;;;4927900;29;19933;-92
2023/04/08 03:17:33;;;;;;;;;;;7.10;99.90;;;;;;4938917;28;20006;-90
2023/04/08 03:20:00;;;;;;;;;;;7.10;99.90;;;;;;4941344;29;19934;-90
2023/04/08 03:22:27;;;;;;;;;;;7.10;99.90;;;;;;4929095;29;19927;-90
2023/04/08 03:24:53;;;;;;;;;;;7.10;99.90;;;;;;4947256;28;19927;-89
2023/04/08 03:27:22;;;;;;;;;;;7.10;99.90;;;;;;4934261;29;19937;-91
2023/04/08 03:29:49;;;;;;;;;;;7.10;99.90;;;;;;4946777;28;19989;-92
2023/04/08 03:32:15;;;;;;;;;;;7.10;99.90;;;;;;4935497;29;19926;-92
2023/04/08 03:34:42;;;;;;;;;;;7.10;99.90;;;;;;4952622;28;20381;-89
2023/04/08 03:37:09;;;;;;;;;;;7.10;99.90;;;;;;4935420;29;19927;-89
2023/04/08 03:39:36;;;;;;;;;;;7.10;99.90;;;;;;4941146;29;20312;-89
2023/04/08 03:42:03;;;;;;;;;;;7.10;99.90;;;;;;4933966;29;19974;-90
2023/04/08 03:44:31;;;;;;;;;;;7.10;99.90;;;;;;4946670;28;19927;-90
2023/04/08 03:46:58;;;;;;;;;;;7.10;99.90;;;;;;4931049;29;19965;-90
2023/04/08 03:49:24;;;;;;;;;;;7.10;99.90;;;;;;4945492;28;19927;-90
2023/04/08 03:51:51;;;;;;;;;;;7.10;99.90;;;;;;4949535;28;19930;-90
2023/04/08 03:54:18;;;;;;;;;;;7.10;99.90;;;;;;4931330;29;20042;-90
2023/04/08 03:56:49;;;;;;;;;;;7.10;99.90;;;;;;4933719;29;19927;-89
2023/04/08 03:59:16;;;;;;;;;;;7.10;99.90;;;;;;4931835;29;19978;-90
2023/04/08 04:01:44;;;;;;;;;;;7.10;99.90;;;;;;4955617;28;19927;-89
2023/04/08 04:04:11;;;;;;;;;;;7.10;99.90;;;;;;4935789;29;19962;-90
2023/04/08 04:06:37;;;;;;;;;;;7.10;99.90;;;;;;4938376;29;19970;-91
2023/04/08 04:09:04;;;;;;;;;;;7.10;99.90;;;;;;4937108;29;20022;-90
2023/04/08 04:11:31;;;;;;;;;;;7.10;99.90;;;;;;4947709;28;19931;-90
2023/04/08 04:13:58;;;;;;;;;;;7.10;99.90;;;;;;4957019;28;20381;-89
2023/04/08 04:16:25;;;;;;;;;;;7.00;99.90;;;;;;4938476;29;20023;-89
2023/04/08 04:18:53;;;;;;;;;;;7.00;99.90;;;;;;4953321;28;20226;-90
2023/04/08 04:21:20;;;;;;;;;;;7.10;99.90;;;;;;4951520;28;19927;-90
2023/04/08 04:23:47;;;;;;;;;;;7.00;99.90;;;;;;4943530;28;20034;-90
2023/04/08 04:26:14;;;;;;;;;;;7.00;99.90;;;;;;4925875;29;19993;-90
2023/04/08 04:28:41;;;;;;;;;;;7.00;99.90;;;;;;4925798;29;19930;-89
2023/04/08 04:31:07;;;;;;;;;;;7.00;99.90;;;;;;4927139;29;20010;-89
2023/04/08 04:33:34;;;;;;;;;;;7.00;99.90;;;;;;4931804;29;19939;-89
2023/04/08 04:36:02;;;;;;;;;;;7.00;99.90;;;;;;4943676;29;19930;-90
2023/04/08 04:38:29;;;;;;;;;;;7.00;99.90;;;;;;4934998;29;19956;-91
2023/04/08 04:40:57;;;;;;;;;;;7.00;99.90;;;;;;4939508;28;19938;-89
2023/04/08 04:43:24;;;;;;;;;;;7.00;99.90;;;;;;4935457;29;19982;-90
2023/04/08 04:45:51;;;;;;;;;;;7.00;99.90;;;;;;4920367;29;20398;-90
2023/04/08 04:48:18;;;;;;;;;;;7.00;99.90;;;;;;4926932;29;19958;-90
2023/04/08 04:50:45;;;;;;;;;;;7.00;99.90;;;;;;4926990;29;19930;-90
2023/04/08 04:53:13;;;;;;;;;;;7.00;99.90;;;;;;4932599;29;19931;-89
2023/04/08 04:55:40;;;;;;;;;;;7.00;99.90;;;;;;4937439;29;19931;-90
2023/04/08 04:58:06;;;;;;;;;;;7.00;99.90;;;;;;4935167;29;19931;-88
2023/04/08 05:00:33;;;;;;;;;;;7.00;99.90;;;;;;4931195;29;19935;-89
2023/04/08 05:03:00;;;;;;;;;;;7.00;99.90;;;;;;4937893;29;20017;-89
2023/04/08 05:05:27;;;;;;;;;;;7.00;99.90;;;;;;4936901;29;19934;-91
2023/04/08 05:07:54;;;;;;;;;;;7.00;99.90;;;;;;4932116;29;19982;-89
2023/04/08 05:10:22;;;;;;;;;;;7.00;99.90;;;;;;4933430;29;19937;-89
2023/04/08 05:12:49;;;;;;;;;;;7.00;99.90;;;;;;4955173;28;19927;-90
2023/04/08 05:15:16;;;;;;;;;;;6.90;99.90;;;;;;4933940;29;19935;-90
2023/04/08 05:17:42;;;;;;;;;;;7.00;99.90;;;;;;4942140;29;19930;-90
2023/04/08 05:20:09;;;;;;;;;;;6.90;99.90;;;;;;4937102;29;20007;-90
2023/04/08 05:22:36;;;;;;;;;;;6.90;99.90;;;;;;4952945;28;19931;-89
2023/04/08 05:25:03;;;;;;;;;;;6.90;99.90;;;;;;4950073;28;19950;-89
2023/04/08 05:27:31;;;;;;;;;;;6.90;99.90;;;;;;4930392;29;20369;-92
2023/04/08 05:29:58;;;;;;;;;;;6.90;99.90;;;;;;4931762;29;19978;-89
2023/04/08 05:32:26;;;;;;;;;;;6.90;99.90;;;;;;4944611;28;20429;-89
2023/04/08 05:34:53;;;;;;;;;;;6.90;99.90;;;;;;4923926;29;20300;-89
2023/04/08 05:37:20;;;;;;;;;;;6.90;99.90;;;;;;4932024;29;19997;-89
2023/04/08 05:39:46;;;;;;;;;;;6.90;99.90;;;;;;4929319;28;19933;-89
2023/04/08 05:42:13;;;;;;;;;;;6.90;99.90;;;;;;4943308;28;19932;-89
2023/04/08 05:44:42;;;;;;;;;;;6.90;99.90;;;;;;4946887;28;20014;-90
2023/04/08 05:47:09;;;;;;;;;;;6.90;99.90;;;;;;4929269;29;19928;-89
2023/04/08 05:49:36;;;;;;;;;;;6.90;99.90;;;;;;4926882;28;19935;-91
2023/04/08 05:52:03;;;;;;;;;;;6.90;99.90;;;;;;4943311;28;19954;-90
2023/04/08 05:54:30;;;;;;;;;;;6.90;99.90;;;;;;4930756;29;20378;-89
2023/04/08 05:56:57;;;;;;;;;;;6.90;99.90;;;;;;4932727;29;19934;-91
2023/04/08 05:59:23;;;;;;;;;;;6.90;99.90;;;;;;4945613;28;19926;-90
2023/04/08 06:01:53;;;;;;;;;;;6.90;99.90;;;;;;4933231;29;19987;-88
2023/04/08 06:04:20;;;;;;;;;;;6.90;99.90;;;;;;4935092;29;19931;-90
2023/04/08 06:06:47;;;;;;;;;;;6.80;99.90;;;;;;4927665;29;19926;-90
2023/04/08 06:09:14;;;;;;;;;;;6.90;99.90;;;;;;4948001;28;19926;-90
2023/04/08 06:11:40;;;;;;;;;;;6.90;99.90;;;;;;4946323;28;19927;-90
2023/04/08 06:14:07;;;;;;;;;;;6.90;99.90;;;;;;4930353;29;19934;-89
2023/04/08 06:16:34;;;;;;;;;;;6.90;99.90;;;;;;4927321;29;19927;-88
2023/04/08 06:19:02;;;;;;;;;;;6.90;99.90;;;;;;4927581;29;19927;-90
2023/04/08 06:21:29;;;;;;;;;;;6.90;99.90;;;;;;4936856;29;20021;-90
2023/04/08 06:23:56;;;;;;;;;;;6.90;99.90;;;;;;4940949;29;19927;-89
2023/04/08 06:26:23;;;;;;;;;;;6.90;99.90;;;;;;4934150;29;19931;-88
2023/04/08 06:28:51;;;;;;;;;;;6.90;99.90;;;;;;4949653;28;20338;-89
2023/04/08 06:31:17;;;;;;;;;;;6.90;99.90;;;;;;4939114;29;19930;-89
2023/04/08 06:33:44;;;;;;;;;;;6.90;99.90;;;;;;4932015;29;19926;-89
2023/04/08 06:36:13;;;;;;;;;;;6.80;99.90;;;;;;4944457;29;19949;-88
2023/04/08 06:38:39;;;;;;;;;;;6.90;99.90;;;;;;4937838;29;19926;-89
2023/04/08 06:41:07;;;;;;;;;;;6.80;99.90;;;;;;4935292;29;20018;-89
2023/04/08 06:43:34;;;;;;;;;;;6.90;99.90;;;;;;4947951;28;19954;-91
2023/04/08 06:46:01;;;;;;;;;;;6.80;99.90;;;;;;4962795;28;19935;-92
2023/04/08 06:48:29;;;;;;;;;;;6.80;99.90;;;;;;4961418;28;19930;-90
2023/04/08 06:50:56;;;;;;;;;;;6.80;99.90;;;;;;4940758;29;19927;-92
2023/04/08 06:53:24;;;;;;;;;;;6.80;99.90;;;;;;4946139;28;19978;-89
2023/04/08 06:55:51;;;;;;;;;;;6.80;99.90;;;;;;4940030;29;19927;-89
2023/04/08 06:58:18;;;;;;;;;;;6.80;99.90;;;;;;4938950;29;19969;-90
2023/04/08 07:00:45;;;;;;;;;;;6.80;99.90;;;;;;4946321;28;20350;-89
2023/04/08 07:03:11;;;;;;;;;;;6.90;99.90;;;;;;4934599;28;19930;-90
2023/04/08 07:05:38;;;;;;;;;;;6.90;99.90;;;;;;4933933;29;20398;-90
2023/04/08 07:08:05;;;;;;;;;;;6.80;99.90;;;;;;4934243;29;19927;-88
2023/04/08 07:10:34;;;;;;;;;;;6.90;99.90;;;;;;4936891;29;19962;-92
2023/04/08 07:13:01;;;;;;;;;;;6.80;99.90;;;;;;4936421;28;19931;-90
2023/04/08 07:15:28;;;;;;;;;;;6.80;99.90;;;;;;4935168;29;20397;-88
2023/04/08 07:17:55;;;;;;;;;;;6.80;99.90;;;;;;4939288;29;19931;-90
2023/04/08 07:20:22;;;;;;;;;;;6.80;99.90;;;;;;4934194;28;19987;-89
2023/04/08 07:22:49;;;;;;;;;;;6.90;99.90;;;;;;4947381;28;19927;-88
2023/04/08 07:25:16;;;;;;;;;;;6.80;99.90;;;;;;4950082;28;19973;-90
2023/04/08 07:27:44;;;;;;;;;;;6.90;99.90;;;;;;4947495;28;19985;-90
2023/04/08 07:30:11;;;;;;;;;;;6.90;99.90;;;;;;4944117;28;19981;-90
2023/04/08 07:32:38;;;;;;;;;;;6.90;99.90;;;;;;4934367;28;20305;-89
2023/04/08 07:35:06;;;;;;;;;;;6.90;99.90;;;;;;4932983;29;19926;-93
2023/04/08 07:37:32;;;;;;;;;;;6.90;99.90;;;;;;4937689;29;19931;-88
2023/04/08 07:39:59;;;;;;;;;;;6.90;99.90;;;;;;4933733;29;19931;-90
2023/04/08 07:42:26;;;;;;;;;;;6.90;99.90;;;;;;4953807;28;19927;-90
2023/04/08 07:44:56;;;;;;;;;;;6.90;99.90;;;;;;4947481;28;19927;-89
2023/04/08 07:47:23;;;;;;;;;;;6.90;99.90;;;;;;4927914;29;19954;-90
2023/04/08 07:49:50;;;;;;;;;;;6.90;99.90;;;;;;4931167;29;20310;-89
2023/04/08 07:52:17;;;;;;;;;;;6.90;99.90;;;;;;4926111;29;20229;-89
2023/04/08 07:54:44;;;;;;;;;;;6.90;99.90;;;;;;4946898;28;20033;-89
2023/04/08 07:57:11;;;;;;;;;;;6.90;99.90;;;;;;4933144;29;20313;-88
2023/04/08 07:59:38;;;;;;;;;;;6.90;99.90;;;;;;4946544;28;20417;-90
2023/04/08 08:02:08;;;;;;;;;;;6.90;99.90;;;;;;4939323;29;19966;-90
2023/04/08 08:04:35;;;;;;;;;;;6.90;99.90;;;;;;4933195;29;20014;-90
2023/04/08 08:07:02;;;;;;;;;;;6.90;99.90;;;;;;4934066;29;20141;-91
2023/04/08 08:09:29;;;;;;;;;;;6.90;99.90;;;;;;4937858;28;19927;-90
2023/04/08 08:11:56;;;;;;;;;;;6.90;99.90;;;;;;4934785;29;20370;-91
2023/04/08 08:14:24;;;;;;;;;;;6.90;99.90;;;;;;4935584;29;19937;-90
2023/04/08 08:16:51;;;;;;;;;;;6.90;99.90;;;;;;4941154;28;20350;-90
2023/04/08 08:19:19;;;;;;;;;;;7.00;99.90;;;;;;4940504;29;19933;-91
2023/04/08 08:21:46;;;;;;;;;;;6.90;99.90;;;;;;4932739;29;20031;-90
2023/04/08 08:24:13;;;;;;;;;;;7.00;99.90;;;;;;4932106;29;20007;-90
2023/04/08 08:26:40;;;;;;;;;;;7.00;99.90;;;;;;4937271;29;19983;-91
2023/04/08 08:29:09;;;;;;;;;;;6.90;99.90;;;;;;4950368;28;19934;-91
2023/04/08 08:31:35;;;;;;;;;;;7.00;99.90;;;;;;4935416;29;19966;-91
2023/04/08 08:34:02;;;;;;;;;;;7.00;99.90;;;;;;4946480;28;20420;-90
2023/04/08 08:36:31;;;;;;;;;;;7.00;99.90;;;;;;4951285;28;19934;-90
2023/04/08 08:38:57;;;;;;;;;;;6.90;99.90;;;;;;4933068;29;19942;-91
2023/04/08 08:41:24;;;;;;;;;;;7.00;99.90;;;;;;4928527;29;19939;-89
2023/04/08 08:43:51;;;;;;;;;;;7.00;99.90;;;;;;4930345;29;19981;-90
2023/04/08 08:46:18;;;;;;;;;;;7.00;99.90;;;;;;4947740;28;19931;-90
2023/04/08 08:48:45;;;;;;;;;;;7.00;99.90;;;;;;4935375;29;19932;-91
2023/04/08 08:51:12;;;;;;;;;;;7.00;99.90;;;;;;4929375;29;19959;-89
2023/04/08 08:53:43;;;;;;;;;;;7.00;99.90;;;;;;4922614;29;19935;-90
2023/04/08 08:56:11;;;;;;;;;;;7.00;99.90;;;;;;4928669;29;19927;-89
2023/04/08 08:58:38;;;;;;;;;;;7.00;99.90;;;;;;4925749;29;19990;-91
2023/04/08 09:01:20;;;;;;;;;;;7.00;99.90;;;;;;4941656;29;20325;-89
2023/04/08 09:03:47;;;;;;;;;;;7.00;99.90;;;;;;4947887;28;19939;-90
2023/04/08 09:06:18;;;;;;;;;;;7.10;99.90;;;;;;4940567;29;19927;-90
2023/04/08 09:08:48;;;;;;;;;;;7.10;99.90;;;;;;4943694;28;19987;-89
2023/04/08 09:11:15;;;;;;;;;;;7.10;99.90;;;;;;4940429;28;19935;-90
2023/04/08 09:13:43;;;;;;;;;;;7.10;99.90;;;;;;4932315;29;20424;-89
2023/04/08 09:16:10;;;;;;;;;;;7.10;99.90;;;;;;4941465;28;19930;-90
2023/04/08 09:18:37;;;;;;;;;;;7.10;99.90;;;;;;4935905;29;19975;-88
2023/04/08 09:21:05;;;;;;;;;;;7.20;99.90;;;;;;4932596;28;19958;-90
2023/04/08 09:23:39;;;;;;;;;;;7.10;99.90;;;;;;4937531;29;20021;-89
2023/04/08 09:26:11;;;;;;;;;;;7.20;99.90;;;;;;4945997;28;19927;-90
2023/04/08 09:28:39;;;;;;;;;;;7.20;99.90;;;;;;4923876;29;20425;-89
2023/04/08 09:31:19;;;;;;;;;;;7.20;99.90;;;;;;4931796;29;20017;-90
2023/04/08 09:33:47;;;;;;;;;;;7.20;99.90;;;;;;4927756;29;19933;-89
2023/04/08 09:36:14;;;;;;;;;;;7.20;99.90;;;;;;4952574;28;19926;-89
2023/04/08 09:38:41;;;;;;;;;;;7.30;99.90;;;;;;4938833;29;19930;-89
2023/04/08 09:41:08;;;;;;;;;;;7.20;99.90;;;;;;4944576;28;19927;-90
2023/04/08 09:43:40;;;;;;;;;;;7.30;99.90;;;;;;4933693;28;19930;-90
2023/04/08 09:46:11;;;;;;;;;;;7.30;99.90;;;;;;4940812;28;19926;-90
2023/04/08 09:48:40;;;;;;;;;;;7.30;99.90;;;;;;4928361;29;19962;-90
2023/04/08 09:51:08;;;;;;;;;;;7.30;99.90;;;;;;4932371;29;19958;-90
2023/04/08 09:53:38;;;;;;;;;;;7.30;99.90;;;;;;4931701;29;19930;-90
2023/04/08 09:56:08;;;;;;;;;;;7.30;99.90;;;;;;4934494;29;19931;-90
2023/04/08 09:58:39;;;;;;;;;;;7.30;99.90;;;;;;4952261;28;19942;-90
2023/04/08 10:01:07;;;;;;;;;;;7.30;99.90;;;;;;4948713;28;19935;-90
2023/04/08 10:03:36;;;;;;;;;;;7.40;99.90;;;;;;4931092;29;19962;-88
2023/04/08 10:06:03;;;;;;;;;;;7.40;99.90;;;;;;4934327;29;19981;-90
2023/04/08 10:08:31;;;;;;;;;;;7.40;99.90;;;;;;4931518;28;19927;-90
2023/04/08 10:10:58;;;;;;;;;;;7.40;99.90;;;;;;4953951;28;19965;-90
2023/04/08 10:13:27;;;;;;;;;;;7.40;99.90;;;;;;4931013;29;19994;-90
2023/04/08 10:16:17;;;;;;;;;;;7.40;99.90;;;;;;4936009;29;20290;-90
2023/04/08 10:18:44;;;;;;;;;;;7.40;99.90;;;;;;4931018;29;19927;-90
2023/04/08 10:21:26;;;;;;;;;;;7.40;99.90;;;;;;4954191;28;20543;-90
2023/04/08 10:23:54;;;;;;;;;;;7.40;99.90;;;;;;4928839;29;19927;-89
2023/04/08 10:26:32;;;;;;;;;;;7.50;99.90;;;;;;4933352;29;19931;-90
2023/04/08 10:29:13;;;;;;;;;;;7.50;99.90;;;;;;4929787;29;20023;-89
2023/04/08 10:31:42;;;;;;;;;;;7.50;99.90;;;;;;4927618;29;20405;-89
2023/04/08 10:34:16;;;;;;;;;;;7.50;99.90;;;;;;4936254;29;20009;-88
2023/04/08 10:36:43;;;;;;;;;;;7.50;99.90;;;;;;4961193;28;19934;-91
2023/04/08 10:39:09;;;;;;;;;;;7.50;99.90;;;;;;4969456;28;19927;-90
2023/04/08 10:41:41;;;;;;;;;;;7.50;99.90;;;;;;4946649;28;19927;-90
2023/04/08 10:44:15;;;;;;;;;;;7.50;99.90;;;;;;4954472;28;19985;-91
2023/04/08 10:46:47;;;;;;;;;;;7.50;99.90;;;;;;4925576;29;20317;-90
2023/04/08 10:49:14;;;;;;;;;;;7.50;99.90;;;;;;4954454;28;19931;-89
2023/04/08 10:51:42;;;;;;;;;;;7.60;99.90;;;;;;4945023;28;19935;-90
2023/04/08 10:54:10;;;;;;;;;;;7.60;99.90;;;;;;4934215;29;20298;-89
2023/04/08 10:56:45;;;;;;;;;;;7.60;99.90;;;;;;4934420;29;19961;-89
2023/04/08 10:59:15;;;;;;;;;;;7.60;99.90;;;;;;4945700;28;19934;-90
2023/04/08 11:01:43;;;;;;;;;;;7.60;99.90;;;;;;4934323;29;20304;-89
2023/04/08 11:04:17;;;;;;;;;;;7.60;99.90;;;;;;4948620;28;19955;-90
2023/04/08 11:06:45;;;;;;;;;;;7.60;99.90;;;;;;4938903;29;19957;-89
2023/04/08 11:09:12;;;;;;;;;;;7.60;99.90;;;;;;4931538;29;19927;-88
2023/04/08 11:11:41;;;;;;;;;;;7.60;99.90;;;;;;4947995;28;19927;-89
2023/04/08 11:14:08;;;;;;;;;;;7.60;99.90;;;;;;4950350;28;19949;-89
2023/04/08 11:16:35;;;;;;;;;;;7.70;99.90;;;;;;4933162;29;19927;-89
2023/04/08 11:19:02;;;;;;;;;;;7.70;99.90;;;;;;4928801;29;20013;-88
2023/04/08 11:21:31;;;;;;;;;;;7.70;99.90;;;;;;4941894;28;19927;-89
2023/04/08 11:23:58;;;;;;;;;;;7.70;99.90;;;;;;4936741;29;20457;-89
2023/04/08 11:26:25;;;;;;;;;;;7.70;99.90;;;;;;4948189;28;19927;-89
2023/04/08 11:28:52;;;;;;;;;;;7.70;99.90;;;;;;4947354;28;19927;-89
2023/04/08 11:31:19;;;;;;;;;;;7.70;99.90;;;;;;4951518;28;20393;-89
2023/04/08 11:33:47;;;;;;;;;;;7.70;99.90;;;;;;4948049;28;19935;-90
2023/04/08 11:36:14;;;;;;;;;;;7.70;99.90;;;;;;4953956;28;19934;-90
2023/04/08 11:38:42;;;;;;;;;;;7.70;99.90;;;;;;4929215;29;20461;-90
2023/04/08 11:41:10;;;;;;;;;;;7.70;99.90;;;;;;4940848;28;19958;-89
2023/04/08 11:43:38;;;;;;;;;;;7.70;99.90;;;;;;4935007;29;19926;-88
2023/04/08 11:46:11;;;;;;;;;;;7.70;99.90;;;;;;4948469;28;19931;-90
2023/04/08 11:48:38;;;;;;;;;;;7.80;99.90;;;;;;4935758;28;20334;-89
2023/04/08 11:51:07;;;;;;;;;;;7.80;99.90;;;;;;4950307;28;20183;-89
2023/04/08 11:53:35;;;;;;;;;;;7.80;99.90;;;;;;4932762;29;19934;-89
2023/04/08 11:56:17;;;;;;;;;;;7.80;99.90;;;;;;4933926;29;19950;-90
2023/04/08 11:58:44;;;;;;;;;;;7.80;99.90;;;;;;4927637;29;19941;-91
2023/04/08 12:01:11;;;;;;;;;;;7.80;99.90;;;;;;4949152;28;20013;-90
2023/04/08 12:03:37;;;;;;;;;;;7.80;99.90;;;;;;4935410;28;19927;-89
2023/04/08 12:06:06;;;;;;;;;;;7.80;99.90;;;;;;4949016;28;19927;-90
2023/04/08 12:08:33;;;;;;;;;;;7.80;99.90;;;;;;4949906;28;19927;-89
2023/04/08 12:11:00;;;;;;;;;;;7.80;99.90;;;;;;4932747;29;20242;-90
2023/04/08 12:13:30;;;;;;;;;;;7.80;99.90;;;;;;4934027;29;19931;-90
2023/04/08 12:15:57;;;;;;;;;;;7.80;99.90;;;;;;4935735;29;20013;-89
2023/04/08 12:18:23;;;;;;;;;;;7.80;99.90;;;;;;4928227;29;19941;-89
2023/04/08 12:20:50;;;;;;;;;;;7.90;99.90;;;;;;4928885;29;20002;-89
2023/04/08 12:23:17;;;;;;;;;;;7.80;99.90;;;;;;4940891;28;19978;-89
2023/04/08 12:25:44;;;;;;;;;;;7.90;99.90;;;;;;4929685;29;20389;-90
2023/04/08 12:28:11;;;;;;;;;;;7.90;99.90;;;;;;4932980;29;19935;-89
2023/04/08 12:30:39;;;;;;;;;;;7.90;99.90;;;;;;4931226;29;20014;-88
2023/04/08 12:33:09;;;;;;;;;;;7.90;99.90;;;;;;4924563;29;19927;-90
2023/04/08 12:35:35;;;;;;;;;;;7.90;99.90;;;;;;4933254;29;19982;-89
2023/04/08 12:38:02;;;;;;;;;;;7.90;99.90;;;;;;4937745;29;20345;-88
2023/04/08 12:40:29;;;;;;;;;;;7.90;99.90;;;;;;4932083;29;19930;-90
2023/04/08 12:42:56;;;;;;;;;;;7.90;99.90;;;;;;4927796;29;19931;-89
2023/04/08 12:45:23;;;;;;;;;;;7.90;99.90;;;;;;4935640;29;19935;-89
2023/04/08 12:47:51;;;;;;;;;;;7.90;99.90;;;;;;4948279;28;19926;-89
2023/04/08 12:50:18;;;;;;;;;;;7.90;99.90;;;;;;4931947;29;19930;-90
2023/04/08 12:52:45;;;;;;;;;;;7.90;99.90;;;;;;4924706;29;19935;-89
2023/04/08 12:55:12;;;;;;;;;;;7.90;99.90;;;;;;4944738;28;20309;-89
2023/04/08 12:57:38;;;;;;;;;;;7.90;99.90;;;;;;4952516;28;20674;-89
2023/04/08 13:00:06;;;;;;;;;;;8.00;99.90;;;;;;4946563;28;19927;-89
2023/04/08 13:02:33;;;;;;;;;;;7.90;99.90;;;;;;4945690;28;19928;-89
2023/04/08 13:05:01;;;;;;;;;;;7.90;99.90;;;;;;4944111;28;20407;-90
2023/04/08 13:07:28;;;;;;;;;;;7.90;99.90;;;;;;4930064;29;19975;-90
2023/04/08 13:09:54;;;;;;;;;;;7.90;99.90;;;;;;4934799;29;19950;-90
2023/04/08 13:12:21;;;;;;;;;;;7.90;99.90;;;;;;4932531;28;19974;-90
2023/04/08 13:14:48;;;;;;;;;;;8.00;99.90;;;;;;4948638;28;20018;-90
2023/04/08 13:17:15;;;;;;;;;;;8.00;99.90;;;;;;4933088;29;20389;-89
2023/04/08 13:19:42;;;;;;;;;;;8.00;99.90;;;;;;4930242;29;19981;-90
2023/04/08 13:22:10;;;;;;;;;;;8.00;99.90;;;;;;4930644;28;20399;-90
2023/04/08 13:24:37;;;;;;;;;;;8.00;99.90;;;;;;4949368;28;20025;-91
2023/04/08 13:27:03;;;;;;;;;;;8.00;99.90;;;;;;4937874;29;20055;-89
2023/04/08 13:29:30;;;;;;;;;;;8.00;99.90;;;;;;4936825;28;19927;-89
2023/04/08 13:31:57;;;;;;;;;;;8.00;99.90;;;;;;4935812;29;19927;-89
2023/04/08 13:34:24;;;;;;;;;;;8.00;99.90;;;;;;4936633;28;20013;-90
2023/04/08 13:36:51;;;;;;;;;;;7.90;99.90;;;;;;4945050;28;19934;-90
2023/04/08 13:39:19;;;;;;;;;;;8.00;99.90;;;;;;4952233;28;19957;-90
2023/04/08 13:41:46;;;;;;;;;;;8.00;99.90;;;;;;4935136;28;20146;-89
2023/04/08 13:44:14;;;;;;;;;;;8.00;99.90;;;;;;4930315;29;20570;-89
2023/04/08 13:46:43;;;;;;;;;;;8.00;99.90;;;;;;4926943;29;19958;-89
2023/04/08 13:49:10;;;;;;;;;;;8.00;99.90;;;;;;4929725;29;20400;-89
2023/04/08 13:51:37;;;;;;;;;;;8.00;99.90;;;;;;4933521;29;20014;-91
2023/04/08 13:54:03;;;;;;;;;;;8.00;99.90;;;;;;4952451;28;19926;-90
2023/04/08 13:56:32;;;;;;;;;;;8.00;99.90;;;;;;4954804;28;19931;-94
2023/04/08 13:58:59;;;;;;;;;;;8.00;99.90;;;;;;4935740;28;19928;-92
2023/04/08 14:01:26;;;;;;;;;;;8.00;99.90;;;;;;4935156;29;19927;-90
2023/04/08 14:03:53;;;;;;;;;;;8.00;99.90;;;;;;4944132;29;20033;-92
2023/04/08 14:06:20;;;;;;;;;;;8.00;99.90;;;;;;4950615;28;19927;-91
2023/04/08 14:08:47;;;;;;;;;;;8.00;99.90;;;;;;4944427;29;19934;-92
2023/04/08 14:11:14;;;;;;;;;;;8.00;99.90;;;;;;4947547;28;19927;-91
2023/04/08 14:13:43;;;;;;;;;;;8.00;99.90;;;;;;4939014;29;19927;-91
2023/04/08 14:16:10;;;;;;;;;;;8.00;99.90;;;;;;4937082;29;19949;-90
2023/04/08 14:18:37;;;;;;;;;;;8.00;99.90;;;;;;4946051;29;19938;-90
2023/04/08 14:21:06;;;;;;;;;;;8.00;99.90;;;;;;4959964;28;19930;-93
2023/04/08 14:23:33;;;;;;;;;;;8.00;99.90;;;;;;4955335;28;19937;-92
2023/04/08 14:26:00;;;;;;;;;;;8.00;99.90;;;;;;4961985;28;20017;-94
2023/04/08 14:28:27;;;;;;;;;;;8.00;99.90;;;;;;4944651;29;19964;-90
2023/04/08 14:30:55;;;;;;;;;;;8.00;99.90;;;;;;4956411;28;19930;-92
2023/04/08 14:33:22;;;;;;;;;;;8.00;99.90;;;;;;4935170;29;19937;-91